Highbury, United Kingdom
Current Conditions -  °F | °C
As of 8:50 PM on Tuesday 25 Nov 2014 (Local Time) from EGLC Reporting Station
Broken Clouds Broken Clouds  
Wind Chill: 44°   Ceiling: 1400
Heat Index: 48°   Visibility: 6mi
Dew Point: 46°   Wind: 9mph
Humidity: 93%   Direction: 70°ENE
Pressure: 30.03"   Gusts: NA
Location:  51.55°N, 0.1°W
Report Text: EGLC 252050Z 07008KT 9000 FEW008 BKN014 09/08 Q1017
Loading
Personal Weather Stations






























Interactive Weather Map New forecast layout! Learn more

10-Day Weather Forecast

Advertisements
Track Severe Weather on mobile